Terminal Aerodrome Forecast
Issued by NWS

Home | Current Version | Previous Version | Graphics & Text | Print | Product List | Glossary On
Versions: 1 2 3 4 5 6 7 8 9 10 11 12 13 14 15 16 17 18 19 20 21 22
154
FTUS41 KCLE 190528
TAFFDY
TAF
KFDY 190528Z 1906/2006 16011KT P6SM BKN250
     FM191100 18010KT 4SM -SHRA OVC015
     FM191400 20012KT 2SM SHRA BR BKN006 OVC012 WS020/22045KT
     FM192000 21015G25KT P6SM VCSH BKN015 OVC035=

USA.gov is the U.S. government's official web portal to all federal, state and local government web resources and services.